Flight Track Log - Related Links

Times and Time Zones

All times are in EDT time to prevent confusion due to time zone crossing. See the SWA1798 flight status page for this flight to view local times or setup timezone preferences in your user account.

Time Position Orientation Groundspeed Altitude Reporting Facility
EDT Latitude Longitude Course Direction KTS MPH feet Rate Location/Type
Sat 05:21:04 PM 33.6319 -117.8908 90° East 143 165 2,100  Level Los Angeles Center
Sat 05:22:06 PM 33.5875 -117.8969 187° South 154 177 3,500 1,968 Climbing Los Angeles Center
Sat 05:23:09 PM 33.5333 -117.8500 144° Southeast 233 268 6,200 2,627 Climbing Southern California TRACON
Sat 05:25:11 PM 33.5625 -117.6611 79° East 296 341 11,600 2,772 Climbing Los Angeles Center
Sat 05:26:00 PM 33.5834 -117.2391 90° East  Level FlightAware Approximate
Sat 05:26:13 PM 33.5769 -117.5425 82° East 347 399 14,700  Level Los Angeles Center
Sat 05:27:15 PM 33.5861 -117.4194 85° East 372 428 17,600 2,710 Climbing Los Angeles Center
Sat 05:28:17 PM 33.5906 -117.2878 88° East 394 453 20,300 2,585 Climbing Los Angeles Center
Sat 05:29:18 PM 33.5961 -117.1500 87° East 412 474 22,900 2,293 Climbing Los Angeles Center
Sat 05:30:20 PM 33.6008 -117.0075 88° East 428 493 25,000 2,177 Climbing Los Angeles Center
Sat 05:31:22 PM 33.6072 -116.8317 87° East 451 519 27,400 2,129 Climbing Los Angeles Center
Sat 05:32:24 PM 33.6117 -116.6786 88° East 456 525 29,400 1,694 Climbing Los Angeles Center
Sat 05:33:26 PM 33.6178 -116.5206 87° East 468 539 30,900 1,452 Climbing Los Angeles Center
Sat 05:34:28 PM 33.6225 -116.3556 88° East 486 559 32,400 1,561 Climbing Los Angeles Center
Sat 05:35:29 PM 33.6881 -116.2183 60° Northeast 484 557 34,100 1,561 Climbing Los Angeles Center
Sat 05:36:31 PM 33.7681 -116.0906 53° Northeast 477 549 35,600 1,210 Climbing Los Angeles Center
Sat 05:37:33 PM 33.8478 -115.9636 53° Northeast 477 549 36,600 1,065 Climbing Los Angeles Center
Sat 05:38:35 PM 33.9461 -115.8064 53° Northeast 486 559 37,800 1,113 Climbing Los Angeles Center
Sat 05:39:37 PM 34.0283 -115.6750 53° Northeast 490 564 38,900 581 Climbing Los Angeles Center
Sat 05:40:39 PM 34.1111 -115.5431 53° Northeast 491 565 39,000 48 Climbing Los Angeles Center
Sat 05:41:41 PM 34.1942 -115.4103 53° Northeast 495 570 39,000  Level Los Angeles Center
Sat 05:42:43 PM 34.2772 -115.2764 53° Northeast 497 572 39,000  Level Los Angeles Center
Sat 05:43:45 PM 34.3600 -115.1431 53° Northeast 496 571 39,000  Level Los Angeles Center
Sat 05:44:47 PM 34.4569 -114.9822 54° Northeast 495 570 39,000  Level Los Angeles Center
Sat 05:45:49 PM 34.5372 -114.8486 54° Northeast 492 566 39,000  Level Los Angeles Center
Sat 05:46:51 PM 34.6189 -114.7161 53° Northeast 490 564 39,000  Level Los Angeles Center
Sat 05:47:52 PM 34.7050 -114.5714 54° Northeast 496 571 39,000  Level Los Angeles Center
Sat 05:48:54 PM 34.7833 -114.4353 55° Northeast 494 568 39,000  Level Los Angeles Center
Sat 05:49:56 PM 34.8486 -114.2864 62° Northeast 500 575 39,000  Level Los Angeles Center
Sat 05:50:58 PM 34.9131 -114.1375 62° Northeast 500 575 39,000  Level Los Angeles Center
Sat 05:52:00 PM 34.9778 -113.9914 62° Northeast 493 567 39,000  Level Los Angeles Center
Sat 05:53:02 PM 35.0475 -113.8322 62° Northeast 489 563 39,000  Level Los Angeles Center
Sat 05:54:03 PM 35.1172 -113.6931 58° Northeast 483 556 39,000  Level Los Angeles Center
Sat 05:55:05 PM 35.1858 -113.5528 59° Northeast 484 557 39,000  Level Los Angeles Center
Sat 05:56:07 PM 35.2542 -113.4108 59° Northeast 487 560 39,000  Level Los Angeles Center
Sat 05:57:09 PM 35.3317 -113.2517 59° Northeast 490 564 39,000  Level Los Angeles Center
Sat 05:58:10 PM 35.4008 -113.1083 59° Northeast 490 564 39,000  Level Los Angeles Center
Sat 05:59:12 PM 35.4711 -112.9644 59° Northeast 492 566 39,000  Level Los Angeles Center
Sat 06:00:14 PM 35.5503 -112.7911 61° Northeast 487 560 39,000  Level Los Angeles Center
Sat 06:01:16 PM 35.6178 -112.6497 60° Northeast 484 557 39,000  Level Los Angeles Center
Sat 06:02:18 PM 35.6819 -112.5133 60° Northeast 484 557 39,000  Level Los Angeles Center
Sat 06:03:20 PM 35.7503 -112.3697 60° Northeast 486 559 39,000  Level Los Angeles Center
Sat 06:04:21 PM 35.8181 -112.2269 60° Northeast 486 559 39,000  Level Los Angeles Center
Sat 06:05:23 PM 35.8847 -112.0828 60° Northeast 486 559 39,000  Level Los Angeles Center
Sat 06:06:25 PM 35.9656 -111.9047 61° Northeast 481 554 39,000  Level Los Angeles Center
Sat 06:07:10 PM 36.0061 -111.8206 59° Northeast 481 554 39,000  Level Denver Center
Sat 06:08:23 PM 36.0731 -111.6761 60° Northeast 484 557 39,000  Level Denver Center
Sat 06:09:25 PM 36.1656 -111.4747 60° Northeast 484 557 39,000  Level Denver Center
Sat 06:10:27 PM 36.2317 -111.3294 61° Northeast 486 559 39,000  Level Denver Center
Sat 06:11:29 PM 36.2978 -111.1847 60° Northeast 486 559 39,000  Level Denver Center
Sat 06:12:30 PM 36.3633 -111.0392 61° Northeast 486 559 39,000  Level Denver Center
Sat 06:13:32 PM 36.4278 -110.8944 61° Northeast 484 557 39,000  Level Denver Center
Sat 06:14:33 PM 36.4950 -110.7492 60° Northeast 485 558 39,000  Level Denver Center
Sat 06:15:35 PM 36.5589 -110.6047 61° Northeast 482 555 39,000  Level Denver Center
Sat 06:16:48 PM 36.6361 -110.4319 61° Northeast 480 552 39,000  Level Denver Center
Sat 06:17:50 PM 36.7103 -110.2597 62° Northeast 475 547 39,000  Level Denver Center
Sat 06:18:52 PM 36.7731 -110.1175 61° Northeast 484 557 39,000  Level Denver Center
Sat 06:19:54 PM 36.8439 -109.9522 62° Northeast 484 557 39,000  Level Denver Center
Sat 06:20:55 PM 36.9053 -109.8119 61° Northeast 480 552 39,000  Level Denver Center
Sat 06:21:57 PM 36.9644 -109.6731 62° Northeast 473 544 39,000  Level Denver Center
Sat 06:22:58 PM 37.0350 -109.5114 61° Northeast 473 544 39,000  Level Denver Center
Sat 06:24:00 PM 37.0953 -109.3728 61° Northeast 473 544 39,000  Level Denver Center
Sat 06:25:02 PM 37.1658 -109.2089 62° Northeast 476 548 39,000  Level Denver Center
Sat 06:26:03 PM 37.2264 -109.0661 62° Northeast 481 554 39,000  Level Denver Center
Sat 06:27:04 PM 37.2761 -108.9478 62° Northeast 480 552 39,000  Level Denver Center
Sat 06:28:06 PM 37.3567 -108.7589 62° Northeast 479 551 39,000  Level Denver Center
Sat 06:29:08 PM 37.4161 -108.6153 62° Northeast 482 555 39,000  Level Denver Center
Sat 06:30:09 PM 37.4856 -108.4481 62° Northeast 482 555 39,000  Level Denver Center
Sat 06:31:11 PM 37.5444 -108.3067 62° Northeast 478 550 39,000  Level Denver Center
Sat 06:32:13 PM 37.6039 -108.1622 63° Northeast 482 555 39,000  Level Denver Center
Sat 06:33:14 PM 37.6728 -107.9975 62° Northeast 476 548 39,000  Level Denver Center
Sat 06:34:16 PM 37.7300 -107.8533 63° Northeast 478 550 39,000  Level Denver Center
Sat 06:35:17 PM 37.7992 -107.6881 62° Northeast 476 548 39,000  Level Denver Center
Sat 06:36:19 PM 37.8567 -107.5439 63° Northeast 479 551 39,000  Level Denver Center
Sat 06:37:20 PM 37.9144 -107.3992 63° Northeast 479 551 39,000  Level Denver Center
Sat 06:38:22 PM 37.9836 -107.2308 62° Northeast 482 555 39,000 -49 Level Denver Center
Sat 06:39:23 PM 38.0461 -107.0736 63° Northeast 479 551 38,900 -537 Descending Denver Center
Sat 06:40:25 PM 38.1050 -106.9247 63° Northeast 479 551 37,900 -968 Descending Denver Center
Sat 06:41:27 PM 38.1692 -106.7628 63° Northeast 474 545 36,900 -927 Descending Denver Center
Sat 06:42:28 PM 38.2253 -106.6228 63° Northeast 468 539 36,000 -844 Descending Denver Center
Sat 06:43:42 PM 38.3047 -106.5067 49° Northeast 457 526 35,000 -933 Descending Denver Center
Sat 06:44:43 PM 38.4106 -106.3756 44° Northeast 444 511 33,900 -1,024 Descending Denver Center
Sat 06:45:45 PM 38.5003 -106.2656 44° Northeast 446 513 32,900 -968 Descending Denver Center
Sat 06:46:47 PM 38.5981 -106.1422 45° Northeast 452 520 31,900 -1,024 Descending Denver Center
Sat 06:47:48 PM 38.6936 -106.0217 45° Northeast 448 516 30,800 -1,512 Descending Denver Center
Sat 06:48:50 PM 38.7819 -105.9117 44° Northeast 440 506 28,800 -2,195 Descending Denver Center
Sat 06:49:51 PM 38.8742 -105.7931 45° Northeast 421 484 26,300 -2,213 Descending Denver Center
Sat 06:50:52 PM 38.9522 -105.6942 45° Northeast 413 475 24,300 -1,951 Descending Denver Center
Sat 06:51:54 PM 39.0381 -105.6181 35° Northeast 393 452 22,300 -2,098 Descending Denver Center
Sat 06:52:55 PM 39.1225 -105.5122 44° Northeast 381 438 20,000 -2,098 Descending Denver Center
Sat 06:53:57 PM 39.1958 -105.4119 47° Northeast 379 436 18,000 -1,512 Descending Denver Center
Sat 06:54:58 PM 39.2497 -105.3064 57° Northeast 345 397 16,900 -1,122 Descending Denver Center
Sat 06:56:00 PM 39.2878 -105.1889 67° East 332 382 15,700 -1,366 Descending Denver Center
Sat 06:57:01 PM 39.3431 -105.0986 52° Northeast 324 373 14,100 -1,317 Descending Denver Center
Sat 06:58:03 PM 39.3747 -104.9914 69° East 328 377 13,000 -878 Descending Denver Center
Sat 06:59:04 PM 39.4267 -104.9042 52° Northeast 285 328 12,300 -787 Descending Denver Center
Sat 07:00:05 PM 39.4819 -104.8447 40° Northeast 258 297 11,400 -927 Descending Denver Center
Sat 07:01:07 PM 39.5439 -104.7992 30° Northeast 256 295 10,400 -927 Descending Denver Center
Sat 07:02:08 PM 39.6081 -104.7567 27° Northeast 261 300 9,500 -1,131 Descending Denver Center
Sat 07:03:09 PM 39.6697 -104.7164 27° Northeast 232 267 8,100 -1,024 Descending Denver Center
Sat 07:04:11 PM 39.7239 -104.6797 28° Northeast 219 252 7,400 -780 Descending Denver Center
Sat 07:05:12 PM 39.7725 -104.6644 14° North 183 211 6,500 -836 Descending Denver Center
Sat 07:06:13 PM 39.8181 -104.6608 North 154 177 5,700 -787 Descending Denver Center
Sat 07:08:00 PM 39.8500 -104.6667 339° North  Level FlightAware Approximate
Sat 07:15:00 PM 39.8617 -104.6732 339° North  Level Estimated
Sat 07:16:00 PM 39.8617 -104.6732 339° North  Level Estimated
Sat 07:17:00 PM 39.8617 -104.6732 339° North  Level Estimated

Login

Don't have an account? Register now (free) for customized features, flight alerts, and more!